Time;durP1;ratioP1;P1;durP2;ratioP2;P2;SDS_P1;SDS_P2;PMS_P1;PMS_P2;Temp;Humidity;BMP_temperature;BMP_pressure;BME280_temperature;BME280_humidity;BME280_pressure;Samples;Min_cycle;Max_cycle;Signal;HPM_P1;HPM_P2
2023/01/18 00:01:24;;;;;;;0.50;0.50;;;0.30;99.90;;;;;;4094889;29;20427;-63
2023/01/18 00:03:25;;;;;;;0.50;0.50;;;0.30;99.90;;;;;;4095010;29;20193;-64
2023/01/18 00:05:26;;;;;;;0.47;0.47;;;0.30;99.90;;;;;;4078359;29;20185;-63
2023/01/18 00:07:26;;;;;;;0.47;0.47;;;0.30;99.90;;;;;;4078190;28;20295;-64
2023/01/18 00:09:27;;;;;;;0.53;0.53;;;0.30;99.90;;;;;;4094866;29;20183;-63
2023/01/18 00:11:28;;;;;;;0.60;0.60;;;0.20;99.90;;;;;;4094804;29;20230;-63
2023/01/18 00:13:28;;;;;;;0.50;0.43;;;0.30;99.90;;;;;;4094942;29;20188;-63
2023/01/18 00:15:33;;;;;;;0.50;0.50;;;0.30;99.90;;;;;;4095404;29;20191;-64
2023/01/18 00:17:46;;;;;;;0.50;0.50;;;0.40;99.90;;;;;;4095069;29;20204;-64
2023/01/18 00:19:47;;;;;;;0.40;0.40;;;0.50;99.90;;;;;;4079763;29;20413;-64
2023/01/18 00:21:54;;;;;;;0.50;0.50;;;0.50;99.90;;;;;;4094466;29;20530;-63
2023/01/18 00:23:57;;;;;;;0.50;0.50;;;0.50;99.90;;;;;;4094506;29;20176;-63
2023/01/18 00:26:04;;;;;;;0.70;0.70;;;0.50;99.90;;;;;;4094433;29;20425;-64
2023/01/18 00:28:05;;;;;;;0.67;0.50;;;0.60;99.90;;;;;;4094726;29;20547;-64
2023/01/18 00:30:07;;;;;;;0.40;0.40;;;0.70;99.90;;;;;;4094798;29;20516;-62
2023/01/18 00:32:08;;;;;;;0.83;0.50;;;0.60;99.90;;;;;;4094511;28;20234;-63
2023/01/18 00:34:08;;;;;;;0.60;0.60;;;0.70;99.90;;;;;;4094765;29;20482;-63
2023/01/18 00:36:10;;;;;;;0.40;0.40;;;0.70;99.90;;;;;;4095195;29;20229;-63
2023/01/18 00:38:12;;;;;;;0.40;0.40;;;0.70;99.90;;;;;;4095204;29;20239;-63
2023/01/18 00:40:14;;;;;;;0.53;0.53;;;0.70;99.90;;;;;;4124613;28;20466;-63
2023/01/18 00:44:34;;;;;;;0.50;0.50;;;0.70;99.90;;;;;;4161656;28;20418;-64
2023/01/18 00:46:35;;;;;;;0.47;0.47;;;0.70;99.90;;;;;;4162655;28;20946;-64
2023/01/18 00:48:40;;;;;;;0.43;0.43;;;0.60;99.90;;;;;;4164595;28;20716;-63
2023/01/18 00:50:40;;;;;;;0.50;0.50;;;0.50;99.90;;;;;;4164396;28;20240;-63
2023/01/18 00:52:45;;;;;;;0.40;0.40;;;0.50;99.90;;;;;;4164345;28;20428;-64
2023/01/18 00:54:45;;;;;;;0.40;0.40;;;0.50;99.90;;;;;;4164925;28;20197;-63
2023/01/18 00:56:46;;;;;;;0.50;0.50;;;0.60;99.90;;;;;;4147037;28;20813;-63
2023/01/18 00:58:47;;;;;;;0.90;0.60;;;0.60;99.90;;;;;;4164192;28;20257;-65
2023/01/18 01:00:51;;;;;;;0.63;0.63;;;0.70;99.90;;;;;;4164213;28;20653;-64
2023/01/18 01:02:52;;;;;;;0.50;0.50;;;0.60;99.90;;;;;;4147138;28;20461;-64
2023/01/18 01:07:12;;;;;;;0.50;0.50;;;0.50;99.90;;;;;;4149506;28;20459;-64
2023/01/18 01:09:23;;;;;;;1.00;0.80;;;0.40;99.90;;;;;;4164071;28;20428;-64
2023/01/18 01:11:24;;;;;;;0.50;0.50;;;0.40;99.90;;;;;;4165980;28;20173;-63
2023/01/18 01:27:22;;;;;;;0.50;0.50;;;0.20;99.90;;;;;;4163946;28;20499;-63
2023/01/18 01:29:22;;;;;;;0.77;0.70;;;0.10;99.90;;;;;;4164063;28;20420;-63
2023/01/18 01:31:23;;;;;;;0.40;0.37;;;0.20;99.90;;;;;;4164021;28;20178;-62
2023/01/18 01:33:24;;;;;;;0.53;0.53;;;0.10;99.90;;;;;;4142659;28;20213;-64
2023/01/18 01:35:24;;;;;;;0.30;0.30;;;0.20;99.90;;;;;;4097189;29;20180;-64
2023/01/18 01:37:25;;;;;;;0.50;0.50;;;0.30;99.90;;;;;;4097334;29;20219;-63
2023/01/18 01:39:26;;;;;;;0.30;0.30;;;0.30;99.90;;;;;;4096931;29;20173;-64
2023/01/18 01:41:32;;;;;;;1.83;0.40;;;0.30;99.90;;;;;;4096737;29;20725;-64
2023/01/18 01:43:50;;;;;;;0.40;0.40;;;0.20;99.90;;;;;;4096445;29;20208;-64
2023/01/18 01:45:51;;;;;;;0.37;0.37;;;0.20;99.90;;;;;;4096749;29;21064;-64
2023/01/18 01:47:53;;;;;;;0.30;0.30;;;0.10;99.90;;;;;;4096598;29;20439;-63
2023/01/18 01:50:03;;;;;;;0.30;0.30;;;0.00;99.90;;;;;;4096539;29;20435;-63
2023/01/18 01:52:10;;;;;;;0.50;0.50;;;-0.10;99.90;;;;;;4079527;28;21130;-64
2023/01/18 01:54:24;;;;;;;0.40;0.40;;;-0.10;99.90;;;;;;4079425;29;20440;-64
2023/01/18 01:56:25;;;;;;;0.30;0.30;;;-0.10;99.90;;;;;;4079272;29;20456;-63
2023/01/18 01:58:28;;;;;;;0.30;0.30;;;-0.10;99.90;;;;;;4095532;29;20431;-63
2023/01/18 02:00:29;;;;;;;0.40;0.40;;;-0.20;99.90;;;;;;4079233;29;20239;-63
2023/01/18 02:02:33;;;;;;;0.40;0.40;;;-0.10;99.90;;;;;;4096622;29;20968;-63
2023/01/18 02:04:34;;;;;;;0.40;0.40;;;0.00;99.90;;;;;;4079821;29;20426;-64
2023/01/18 02:06:37;;;;;;;0.47;0.40;;;0.10;99.90;;;;;;4096977;29;20458;-63
2023/01/18 02:08:39;;;;;;;0.30;0.30;;;0.10;99.90;;;;;;4079757;29;20514;-63
2023/01/18 02:10:40;;;;;;;0.30;0.30;;;0.10;99.90;;;;;;4096826;29;20470;-64
2023/01/18 02:12:44;;;;;;;0.40;0.40;;;0.20;99.90;;;;;;4096522;29;20432;-64
2023/01/18 02:14:45;;;;;;;0.30;0.30;;;0.20;99.90;;;;;;4079140;29;20294;-63
2023/01/18 02:17:01;;;;;;;0.30;0.30;;;0.30;99.90;;;;;;4095255;29;20546;-63
2023/01/18 02:19:14;;;;;;;0.40;0.40;;;0.10;99.90;;;;;;4096572;29;20189;-64
2023/01/18 02:21:25;;;;;;;0.30;0.30;;;0.10;99.90;;;;;;4096844;29;20431;-63
2023/01/18 02:23:34;;;;;;;0.40;0.40;;;0.10;99.90;;;;;;4079539;29;20901;-64
2023/01/18 02:26:16;;;;;;;0.37;0.37;;;0.00;99.90;;;;;;4095259;29;20428;-63
2023/01/18 02:28:32;;;;;;;0.40;0.40;;;-0.10;99.90;;;;;;4096972;29;20425;-63
2023/01/18 02:30:41;;;;;;;0.50;0.50;;;-0.10;99.90;;;;;;4079817;29;20435;-63
2023/01/18 02:32:53;;;;;;;2.33;1.37;;;0.00;99.90;;;;;;4096943;28;20919;-63
2023/01/18 02:35:10;;;;;;;2.93;1.57;;;-0.10;99.90;;;;;;4096843;29;20820;-64
2023/01/18 02:37:44;;;;;;;0.87;0.80;;;0.00;99.90;;;;;;4096641;29;20456;-63
2023/01/18 02:40:32;;;;;;;1.80;0.87;;;0.10;99.90;;;;;;4096600;29;20423;-63
2023/01/18 02:47:15;;;;;;;0.50;0.50;;;0.10;99.90;;;;;;4147703;28;20512;-64
2023/01/18 02:49:26;;;;;;;0.40;0.40;;;0.10;99.90;;;;;;4144881;28;21039;-63
2023/01/18 02:51:26;;;;;;;0.30;0.30;;;0.10;99.90;;;;;;4161673;28;20439;-63
2023/01/18 02:53:28;;;;;;;0.30;0.30;;;0.10;99.90;;;;;;4162621;28;20420;-64
2023/01/18 02:55:43;;;;;;;0.30;0.30;;;0.20;99.90;;;;;;4145079;28;20178;-64
2023/01/18 02:57:44;;;;;;;0.73;0.40;;;0.20;99.90;;;;;;4145068;28;21040;-64
2023/01/18 02:59:53;;;;;;;0.40;0.40;;;0.20;99.90;;;;;;4162974;28;20428;-63
2023/01/18 03:02:08;;;;;;;0.30;0.30;;;0.20;99.90;;;;;;4132889;28;20573;-63
2023/01/18 03:04:35;;;;;;;0.30;0.30;;;0.10;99.90;;;;;;4095605;28;20498;-63
2023/01/18 03:06:38;;;;;;;0.30;0.30;;;0.10;99.90;;;;;;4095581;28;20507;-63
2023/01/18 03:08:53;;;;;;;0.37;0.37;;;0.10;99.90;;;;;;4094159;29;20415;-64
2023/01/18 03:11:11;;;;;;;0.40;0.40;;;0.10;99.90;;;;;;4094397;29;20824;-63
2023/01/18 03:13:26;;;;;;;0.27;0.27;;;0.00;99.90;;;;;;4096883;29;20435;-63
2023/01/18 03:15:30;;;;;;;0.30;0.30;;;0.20;99.90;;;;;;4095745;29;20478;-64
2023/01/18 03:17:43;;;;;;;0.30;0.30;;;0.20;99.90;;;;;;4095873;28;20451;-63
2023/01/18 03:20:06;;;;;;;0.30;0.30;;;0.00;99.90;;;;;;4094588;29;20445;-63
2023/01/18 03:22:07;;;;;;;0.40;0.40;;;0.10;99.90;;;;;;4096121;28;20468;-64
2023/01/18 03:24:09;;;;;;;0.30;0.30;;;0.30;99.90;;;;;;4095197;28;20985;-64
2023/01/18 03:26:18;;;;;;;0.40;0.40;;;0.30;99.90;;;;;;4095125;28;20964;-63
2023/01/18 03:33:44;;;;;;;0.40;0.40;;;0.40;99.90;;;;;;4079716;29;20490;-65
2023/01/18 03:35:47;;;;;;;0.40;0.40;;;0.50;99.90;;;;;;4062987;29;20436;-63
2023/01/18 03:37:52;;;;;;;0.40;0.40;;;0.30;99.90;;;;;;4080121;29;20950;-63
2023/01/18 03:40:02;;;;;;;0.50;0.50;;;0.20;99.90;;;;;;4062732;29;20448;-64
2023/01/18 03:42:34;;;;;;;0.30;0.30;;;0.00;99.90;;;;;;4078149;28;20465;-64
2023/01/18 03:44:39;;;;;;;0.40;0.40;;;-0.30;99.90;;;;;;4059755;29;20442;-63
2023/01/18 03:46:42;;;;;;;0.30;0.30;;;-0.40;99.90;;;;;;4077683;29;20446;-63
2023/01/18 03:48:43;;;;;;;0.33;0.33;;;-0.40;99.90;;;;;;4079846;29;20424;-64
2023/01/18 03:51:01;;;;;;;0.40;0.40;;;-0.50;99.90;;;;;;4047213;29;20940;-64
2023/01/18 03:53:11;;;;;;;0.30;0.30;;;-0.60;99.90;;;;;;4143581;28;20713;-64
2023/01/18 03:55:23;;;;;;;0.37;0.37;;;-0.50;99.90;;;;;;4062935;29;20434;-63
2023/01/18 03:57:34;;;;;;;0.30;0.30;;;-0.50;99.90;;;;;;4062614;29;20445;-64
2023/01/18 03:59:38;;;;;;;0.33;0.33;;;-0.40;99.90;;;;;;4079552;28;20814;-63
2023/01/18 04:01:39;;;;;;;0.30;0.30;;;-0.30;99.90;;;;;;4078033;29;20467;-63
2023/01/18 04:03:39;;;;;;;0.30;0.30;;;-0.30;99.90;;;;;;4094980;29;20435;-63
2023/01/18 04:05:40;;;;;;;0.40;0.40;;;-0.10;99.90;;;;;;4095123;29;20462;-64
2023/01/18 04:07:41;;;;;;;0.40;0.40;;;0.00;99.90;;;;;;4077815;29;20216;-64
2023/01/18 04:09:42;;;;;;;0.40;0.40;;;-0.10;99.90;;;;;;4077646;29;20273;-62
2023/01/18 04:11:43;;;;;;;0.40;0.40;;;-0.20;99.90;;;;;;4095197;29;20987;-63
2023/01/18 04:13:44;;;;;;;0.40;0.40;;;-0.20;99.90;;;;;;4095607;29;20229;-63
2023/01/18 04:15:45;;;;;;;0.37;0.37;;;-0.30;99.90;;;;;;4095500;29;20514;-63
2023/01/18 04:17:48;;;;;;;0.37;0.37;;;-0.30;99.90;;;;;;4095650;29;20744;-63
2023/01/18 04:19:49;;;;;;;0.40;0.40;;;-0.50;99.90;;;;;;4095823;28;20198;-63
2023/01/18 04:21:49;;;;;;;0.47;0.47;;;-0.70;99.90;;;;;;4096963;29;20474;-63
2023/01/18 04:23:50;;;;;;;0.40;0.40;;;-0.70;99.90;;;;;;4098136;29;20234;-64
2023/01/18 04:25:51;;;;;;;0.30;0.30;;;-0.70;99.90;;;;;;4098397;29;20221;-63
2023/01/18 04:27:51;;;;;;;0.30;0.30;;;-0.80;99.90;;;;;;4098294;29;20219;-63
2023/01/18 04:29:52;;;;;;;0.30;0.30;;;-0.80;99.90;;;;;;4098171;29;20184;-63
2023/01/18 04:31:53;;;;;;;0.30;0.30;;;-0.80;99.90;;;;;;4098486;29;20196;-63
2023/01/18 04:33:54;;;;;;;0.40;0.40;;;-0.80;99.90;;;;;;4097952;29;20188;-63
2023/01/18 04:35:54;;;;;;;0.40;0.40;;;-0.80;99.90;;;;;;4097528;29;20982;-63
2023/01/18 04:37:55;;;;;;;0.40;0.40;;;-0.70;99.90;;;;;;4109028;28;20787;-63
2023/01/18 04:39:56;;;;;;;0.60;0.60;;;-0.70;99.90;;;;;;4165640;28;20242;-63
2023/01/18 04:41:57;;;;;;;0.33;0.33;;;-0.80;99.90;;;;;;4165498;28;20209;-64
2023/01/18 04:43:58;;;;;;;0.83;0.70;;;-1.00;99.90;;;;;;4166083;28;20494;-63
2023/01/18 04:45:58;;;;;;;0.40;0.40;;;-1.10;99.90;;;;;;4165331;28;20210;-63
2023/01/18 04:47:59;;;;;;;0.77;0.60;;;-1.00;99.90;;;;;;4165496;28;20240;-63
2023/01/18 04:50:00;;;;;;;0.80;0.80;;;-1.00;99.90;;;;;;4165083;28;20843;-65
2023/01/18 04:52:01;;;;;;;0.30;0.30;;;-0.90;99.90;;;;;;4165097;28;20184;-63
2023/01/18 04:54:01;;;;;;;0.60;0.60;;;-1.00;99.90;;;;;;4147223;28;20202;-63
2023/01/18 04:56:02;;;;;;;0.50;0.50;;;-1.00;99.90;;;;;;4164954;28;20246;-64
2023/01/18 04:58:03;;;;;;;0.67;0.50;;;-1.00;99.90;;;;;;4164835;28;20215;-64
2023/01/18 05:00:04;;;;;;;0.57;0.57;;;-1.00;99.90;;;;;;4147915;28;20217;-64
2023/01/18 05:02:05;;;;;;;0.40;0.40;;;-1.00;99.90;;;;;;4177756;28;20696;-63
2023/01/18 05:04:06;;;;;;;0.40;0.40;;;-1.10;99.90;;;;;;4181308;28;20419;-63
2023/01/18 05:06:10;;;;;;;0.73;0.60;;;-1.20;99.90;;;;;;4180987;28;20184;-63
2023/01/18 05:08:10;;;;;;;0.53;0.53;;;-1.40;99.90;;;;;;4181361;28;20200;-63
2023/01/18 05:10:11;;;;;;;0.50;0.50;;;-1.40;99.90;;;;;;4163220;28;20443;-64
2023/01/18 05:12:12;;;;;;;0.40;0.40;;;-1.40;99.90;;;;;;4181341;28;20180;-63
2023/01/18 05:14:12;;;;;;;0.50;0.50;;;-1.30;99.90;;;;;;4184615;28;20188;-63
2023/01/18 05:16:17;;;;;;;0.50;0.50;;;-1.30;99.90;;;;;;4183214;28;20199;-64
2023/01/18 05:18:17;;;;;;;0.40;0.40;;;-1.30;99.90;;;;;;4182179;28;20185;-63
2023/01/18 05:20:18;;;;;;;0.40;0.40;;;-1.30;99.90;;;;;;4181706;28;20961;-64
2023/01/18 05:22:20;;;;;;;0.50;0.50;;;-1.30;99.90;;;;;;4163716;28;20677;-63
2023/01/18 05:24:20;;;;;;;0.50;0.50;;;-1.40;99.90;;;;;;4181599;28;20191;-63
2023/01/18 05:26:23;;;;;;;0.60;0.60;;;-1.50;99.90;;;;;;4180550;28;20466;-63
2023/01/18 05:28:26;;;;;;;1.83;0.87;;;-1.60;99.90;;;;;;4169579;28;20665;-63
2023/01/18 05:30:26;;;;;;;0.83;0.70;;;-1.60;99.90;;;;;;4181719;28;20426;-63
2023/01/18 05:32:27;;;;;;;1.57;0.90;;;-1.60;99.90;;;;;;4181342;28;20421;-64
2023/01/18 05:34:28;;;;;;;1.27;0.83;;;-1.60;99.90;;;;;;4181010;28;20180;-63
2023/01/18 05:36:29;;;;;;;0.40;0.40;;;-1.40;99.90;;;;;;4181020;28;20203;-64
2023/01/18 05:38:29;;;;;;;0.60;0.60;;;-1.60;99.90;;;;;;4181415;28;20188;-64
2023/01/18 05:40:30;;;;;;;1.73;1.50;;;-1.50;99.90;;;;;;4180994;28;20192;-64
2023/01/18 05:42:31;;;;;;;1.17;1.07;;;-1.60;99.90;;;;;;4180613;28;20242;-64
2023/01/18 05:44:31;;;;;;;0.60;0.60;;;-1.70;99.90;;;;;;4181031;28;20560;-63
2023/01/18 05:46:32;;;;;;;2.50;2.30;;;-1.60;99.90;;;;;;4180904;28;20605;-64
2023/01/18 05:48:33;;;;;;;0.70;0.70;;;-1.60;99.90;;;;;;4162935;28;20204;-64
2023/01/18 05:50:33;;;;;;;0.70;0.70;;;-1.40;99.90;;;;;;4180462;28;20177;-64
2023/01/18 05:52:35;;;;;;;0.50;0.50;;;-1.30;99.90;;;;;;4180776;28;20707;-64
2023/01/18 05:54:35;;;;;;;1.03;0.80;;;-1.20;99.90;;;;;;4180577;28;20192;-63
2023/01/18 05:56:36;;;;;;;0.60;0.60;;;-1.30;99.90;;;;;;4180654;28;20820;-64
2023/01/18 05:58:37;;;;;;;1.10;1.00;;;-1.50;99.90;;;;;;4180151;28;20425;-63
2023/01/18 06:00:38;;;;;;;0.60;0.60;;;-1.70;99.90;;;;;;4180318;28;20652;-64
2023/01/18 06:02:39;;;;;;;0.60;0.60;;;-1.70;99.90;;;;;;4180264;28;20472;-64
2023/01/18 06:04:39;;;;;;;1.63;1.43;;;-1.70;99.90;;;;;;4180055;28;20177;-64
2023/01/18 06:06:40;;;;;;;1.23;0.63;;;-1.70;99.90;;;;;;4179881;28;20582;-64
2023/01/18 06:08:41;;;;;;;0.60;0.60;;;-1.60;99.90;;;;;;4179741;28;20595;-64
2023/01/18 06:10:42;;;;;;;0.97;0.93;;;-1.60;99.90;;;;;;4179722;28;20626;-64
2023/01/18 06:12:44;;;;;;;1.07;0.70;;;-1.50;99.90;;;;;;4162087;28;20444;-64
2023/01/18 06:14:44;;;;;;;0.70;0.70;;;-1.60;99.90;;;;;;4178681;28;20702;-64
2023/01/18 06:16:45;;;;;;;0.70;0.70;;;-1.70;99.90;;;;;;4180490;28;20481;-63
2023/01/18 06:18:46;;;;;;;0.70;0.70;;;-1.70;99.90;;;;;;4180146;28;20228;-64
2023/01/18 06:20:46;;;;;;;0.63;0.63;;;-1.70;99.90;;;;;;4180210;28;20214;-63
2023/01/18 06:22:47;;;;;;;1.40;1.20;;;-1.80;99.90;;;;;;4179861;28;20212;-64
2023/01/18 06:24:47;;;;;;;1.07;0.97;;;-1.70;99.90;;;;;;4179635;28;20199;-62
2023/01/18 06:26:48;;;;;;;1.53;1.30;;;-1.70;99.90;;;;;;4179493;28;20200;-62
2023/01/18 06:28:49;;;;;;;1.20;1.00;;;-1.80;99.90;;;;;;4179726;28;20181;-62
2023/01/18 06:30:54;;;;;;;1.10;1.00;;;-1.80;99.90;;;;;;4179801;28;20187;-63
2023/01/18 06:32:54;;;;;;;1.27;1.10;;;-1.80;99.90;;;;;;4179774;28;20195;-62
2023/01/18 06:34:55;;;;;;;1.53;1.20;;;-1.80;99.90;;;;;;4180024;28;20431;-63
2023/01/18 06:36:56;;;;;;;1.20;1.10;;;-1.70;99.90;;;;;;4180424;28;20700;-63
2023/01/18 06:38:56;;;;;;;1.50;1.00;;;-1.50;99.90;;;;;;4180198;28;20184;-62
2023/01/18 06:40:57;;;;;;;1.20;1.10;;;-1.40;99.90;;;;;;4180067;28;20233;-62
2023/01/18 06:42:58;;;;;;;1.53;1.27;;;-1.50;99.90;;;;;;4159846;28;20213;-63
2023/01/18 06:44:59;;;;;;;2.03;1.57;;;-1.50;99.90;;;;;;4162994;28;20201;-63
2023/01/18 06:47:00;;;;;;;1.93;1.30;;;-1.40;99.90;;;;;;4163584;28;20481;-63
2023/01/18 06:49:00;;;;;;;2.00;1.70;;;-1.40;99.90;;;;;;4163586;28;20188;-63
2023/01/18 06:51:01;;;;;;;1.50;1.13;;;-1.30;99.90;;;;;;4163589;28;20184;-63
2023/01/18 06:53:02;;;;;;;2.33;1.57;;;-1.30;99.90;;;;;;4163374;28;20236;-64
2023/01/18 06:55:02;;;;;;;2.60;1.40;;;-1.30;99.90;;;;;;4145724;28;20186;-63
2023/01/18 06:57:03;;;;;;;2.07;1.80;;;-1.40;99.90;;;;;;4163600;28;20203;-63
2023/01/18 06:59:04;;;;;;;1.30;1.20;;;-1.40;99.90;;;;;;4145636;28;20268;-62
2023/01/18 07:01:05;;;;;;;1.50;1.40;;;-1.30;99.90;;;;;;4163225;28;20196;-63
2023/01/18 07:03:09;;;;;;;1.47;1.30;;;-1.50;99.90;;;;;;4163203;28;20189;-63
2023/01/18 07:05:10;;;;;;;1.77;1.40;;;-1.60;99.90;;;;;;4163372;28;20703;-63
2023/01/18 07:07:12;;;;;;;1.40;1.23;;;-1.40;99.90;;;;;;4163190;28;20486;-63
2023/01/18 07:09:13;;;;;;;1.60;1.43;;;-1.40;99.90;;;;;;4163073;28;20177;-63
2023/01/18 07:11:14;;;;;;;1.97;1.43;;;-1.40;99.90;;;;;;4163129;28;20865;-63
2023/01/18 07:13:15;;;;;;;2.63;1.80;;;-1.40;99.90;;;;;;4167142;28;20189;-63
2023/01/18 07:15:16;;;;;;;1.77;1.30;;;-1.30;99.90;;;;;;4170727;28;20197;-63
2023/01/18 07:17:17;;;;;;;1.77;1.40;;;-1.20;99.90;;;;;;4117079;28;20208;-63
2023/01/18 07:19:18;;;;;;;1.93;1.73;;;-1.20;99.90;;;;;;4071100;29;20511;-62
2023/01/18 07:21:21;;;;;;;1.60;1.33;;;-1.30;99.90;;;;;;4095320;29;20191;-62
2023/01/18 07:23:22;;;;;;;1.80;1.50;;;-1.30;99.90;;;;;;4096379;29;20212;-63
2023/01/18 07:25:23;;;;;;;1.53;1.43;;;-1.20;99.90;;;;;;4096457;29;20977;-63
2023/01/18 07:27:24;;;;;;;1.50;1.40;;;-1.30;99.90;;;;;;4096149;29;20218;-62
2023/01/18 07:29:24;;;;;;;1.43;1.33;;;-1.30;99.90;;;;;;4096077;29;20424;-63
2023/01/18 07:31:26;;;;;;;1.70;1.40;;;-1.30;99.90;;;;;;4096393;29;20224;-63
2023/01/18 07:33:27;;;;;;;1.57;1.30;;;-1.30;99.90;;;;;;4096205;29;20258;-62
2023/01/18 07:35:28;;;;;;;1.60;1.50;;;-1.20;99.90;;;;;;4093462;28;20527;-63
2023/01/18 07:37:29;;;;;;;3.07;1.60;;;-1.20;99.90;;;;;;4096015;29;20498;-63
2023/01/18 07:39:29;;;;;;;1.70;1.50;;;-1.20;99.90;;;;;;4095239;29;20183;-63
2023/01/18 07:41:30;;;;;;;1.77;1.63;;;-1.10;99.90;;;;;;4095327;29;20205;-63
2023/01/18 07:43:32;;;;;;;2.50;1.80;;;-1.10;99.90;;;;;;4095107;29;20581;-63
2023/01/18 07:45:32;;;;;;;2.67;1.60;;;-1.20;99.90;;;;;;4095949;29;20180;-63
2023/01/18 07:47:38;;;;;;;3.70;2.43;;;-1.20;99.90;;;;;;4095785;29;20447;-63
2023/01/18 07:49:39;;;;;;;2.27;2.03;;;-1.10;99.90;;;;;;4095314;29;20182;-64
2023/01/18 07:51:40;;;;;;;1.70;1.37;;;-1.10;99.90;;;;;;4095127;29;20435;-64
2023/01/18 07:53:40;;;;;;;1.60;1.30;;;-1.10;99.90;;;;;;4095126;29;20184;-63
2023/01/18 07:55:41;;;;;;;3.17;2.40;;;-1.00;99.90;;;;;;4094654;28;20530;-64
2023/01/18 07:57:42;;;;;;;1.70;1.60;;;-1.00;99.90;;;;;;4095463;29;20256;-63
2023/01/18 07:59:43;;;;;;;2.30;1.80;;;-1.00;99.90;;;;;;4095152;28;20278;-63
2023/01/18 08:01:44;;;;;;;2.33;1.83;;;-0.90;99.90;;;;;;4094768;28;21088;-64
2023/01/18 08:03:46;;;;;;;6.83;3.77;;;-0.80;99.90;;;;;;4095038;29;20208;-62
2023/01/18 08:05:47;;;;;;;8.23;4.40;;;-0.70;99.90;;;;;;4094702;29;20230;-63
2023/01/18 08:07:54;;;;;;;7.30;4.73;;;-0.60;99.90;;;;;;4094975;29;20951;-63
2023/01/18 08:09:56;;;;;;;4.23;2.40;;;-0.50;99.90;;;;;;4062228;29;20544;-63
2023/01/18 08:11:57;;;;;;;5.67;2.10;;;-0.50;99.90;;;;;;4094863;29;20841;-63
2023/01/18 08:13:58;;;;;;;2.27;2.00;;;-0.70;99.90;;;;;;4094879;29;20493;-63
2023/01/18 08:16:01;;;;;;;2.93;1.80;;;-0.50;99.90;;;;;;4077785;29;20184;-64
2023/01/18 08:18:05;;;;;;;3.63;1.90;;;-0.40;99.90;;;;;;4094905;29;20211;-63
2023/01/18 08:20:08;;;;;;;2.50;1.80;;;-0.40;99.90;;;;;;4094905;29;20466;-63
2023/01/18 08:22:08;;;;;;;2.37;1.67;;;-0.40;99.90;;;;;;4094714;29;20467;-63
2023/01/18 08:24:09;;;;;;;2.47;1.60;;;-0.40;99.90;;;;;;4094988;29;20427;-64
2023/01/18 08:26:12;;;;;;;2.57;1.53;;;-0.40;99.90;;;;;;4095412;29;20184;-63
2023/01/18 08:28:14;;;;;;;4.47;3.03;;;-0.30;99.90;;;;;;4095631;29;20200;-63
2023/01/18 08:30:15;;;;;;;2.67;2.23;;;-0.30;99.90;;;;;;4078337;29;20478;-63
2023/01/18 08:32:16;;;;;;;3.03;2.60;;;-0.10;99.90;;;;;;4078415;28;20439;-62
2023/01/18 08:34:17;;;;;;;2.90;2.17;;;-0.10;99.90;;;;;;4094074;29;20438;-63
2023/01/18 08:36:24;;;;;;;3.60;2.23;;;-0.10;99.90;;;;;;4078307;29;20196;-62
2023/01/18 08:38:24;;;;;;;1.87;1.67;;;-0.10;99.90;;;;;;4094066;29;20683;-64
2023/01/18 08:40:26;;;;;;;2.60;2.17;;;0.00;99.90;;;;;;4095188;29;20437;-66
2023/01/18 08:42:27;;;;;;;1.70;1.60;;;0.10;99.90;;;;;;4082019;28;20343;-62
2023/01/18 08:44:27;;;;;;;1.50;1.40;;;0.20;99.90;;;;;;4091888;28;20439;-63
2023/01/18 08:46:28;;;;;;;3.07;2.30;;;0.30;99.90;;;;;;4094361;29;20222;-63
2023/01/18 08:48:29;;;;;;;3.00;2.10;;;0.40;99.90;;;;;;4099827;28;20188;-63
2023/01/18 08:50:32;;;;;;;1.60;1.30;;;0.40;99.60;;;;;;4131836;28;21977;-62
2023/01/18 08:52:36;;;;;;;2.93;1.33;;;0.40;99.40;;;;;;4104810;28;20288;-63
2023/01/18 08:54:36;;;;;;;1.57;1.33;;;0.30;98.50;;;;;;4078366;28;20447;-63
2023/01/18 08:56:37;;;;;;;2.23;1.13;;;0.20;99.20;;;;;;4109993;28;20427;-63
2023/01/18 08:58:38;;;;;;;1.37;1.20;;;0.10;99.60;;;;;;4102402;28;20195;-63
2023/01/18 09:00:38;;;;;;;1.40;1.10;;;0.00;99.10;;;;;;4101387;28;20202;-62
2023/01/18 09:02:39;;;;;;;3.20;1.47;;;0.10;99.60;;;;;;4110313;28;20209;-64
2023/01/18 09:04:41;;;;;;;1.80;1.37;;;0.30;99.30;;;;;;4164210;28;20180;-63
2023/01/18 09:06:43;;;;;;;1.10;1.00;;;0.40;98.70;;;;;;4105791;28;20296;-63
2023/01/18 09:08:49;;;;;;;1.43;1.20;;;0.70;98.20;;;;;;4099074;28;21277;-64
2023/01/18 09:10:49;;;;;;;2.43;1.40;;;0.90;96.80;;;;;;4097608;29;20429;-64
2023/01/18 09:12:50;;;;;;;1.57;1.20;;;0.90;96.20;;;;;;4109415;28;20435;-62
2023/01/18 09:14:51;;;;;;;2.63;1.20;;;0.80;95.80;;;;;;4109085;28;20192;-62
2023/01/18 09:16:51;;;;;;;4.27;1.50;;;0.60;95.30;;;;;;4102444;28;20210;-63
2023/01/18 09:18:54;;;;;;;4.77;1.67;;;0.60;96.30;;;;;;4106960;28;20265;-63
2023/01/18 09:20:57;;;;;;;1.63;1.33;;;0.80;96.00;;;;;;4103361;28;20243;-63
2023/01/18 09:22:58;;;;;;;72.47;17.80;;;0.70;95.40;;;;;;4106367;28;20470;-63
2023/01/18 09:24:58;;;;;;;5.97;2.63;;;0.60;95.10;;;;;;4104119;28;20811;-61
2023/01/18 09:26:59;;;;;;;1.87;1.30;;;0.50;95.00;;;;;;4124349;28;20702;-58
2023/01/18 09:28:59;;;;;;;4.13;1.87;;;0.40;96.10;;;;;;4104515;28;20645;-64
2023/01/18 09:31:08;;;;;;;2.93;1.97;;;0.40;95.70;;;;;;4103716;28;20643;-65
2023/01/18 09:33:11;;;;;;;2.50;1.47;;;0.50;95.70;;;;;;4087807;28;20198;-64
2023/01/18 09:35:16;;;;;;;4.63;1.57;;;0.60;94.90;;;;;;4105865;28;20440;-64
2023/01/18 09:37:18;;;;;;;1.33;1.07;;;0.90;95.20;;;;;;4104046;28;20467;-61
2023/01/18 09:39:20;;;;;;;3.37;1.60;;;1.00;94.00;;;;;;4106647;28;20449;-61
2023/01/18 09:41:38;;;;;;;1.33;1.13;;;1.10;93.80;;;;;;4136508;28;20443;-63
2023/01/18 09:43:47;;;;;;;1.80;1.27;;;0.90;93.60;;;;;;4109056;28;20462;-64
2023/01/18 09:45:48;;;;;;;1.53;1.40;;;0.90;94.30;;;;;;4151830;28;20431;-63
2023/01/18 09:47:59;;;;;;;2.50;1.30;;;0.70;93.60;;;;;;4176718;28;21025;-61
2023/01/18 09:50:14;;;;;;;1.40;1.30;;;0.40;93.70;;;;;;4081117;29;20699;-65
2023/01/18 09:52:33;;;;;;;1.60;1.27;;;0.20;94.70;;;;;;4065806;29;20458;-62
2023/01/18 09:54:53;;;;;;;1.50;1.40;;;0.20;95.90;;;;;;4109730;28;20566;-62
2023/01/18 09:57:36;;;;;;;2.93;1.43;;;0.40;95.00;;;;;;4143716;28;20511;-64
2023/01/18 09:59:49;;;;;;;3.53;1.53;;;0.80;94.50;;;;;;4106178;28;20488;-65
2023/01/18 10:01:50;;;;;;;2.43;1.80;;;0.90;93.60;;;;;;4099191;28;20529;-62
2023/01/18 10:03:58;;;;;;;4.27;1.67;;;0.90;94.10;;;;;;4093341;29;20439;-64
2023/01/18 10:06:09;;;;;;;1.97;1.60;;;0.70;93.20;;;;;;4080794;29;20428;-63
2023/01/18 10:08:15;;;;;;;1.57;1.40;;;0.60;92.80;;;;;;4081473;28;20530;-63
2023/01/18 10:10:17;;;;;;;2.63;1.40;;;0.50;93.30;;;;;;4094638;29;20483;-64
2023/01/18 10:12:43;;;;;;;1.40;1.30;;;0.80;92.60;;;;;;4081015;29;20441;-64
2023/01/18 10:14:55;;;;;;;1.97;1.47;;;0.80;91.10;;;;;;4091058;29;20445;-64
2023/01/18 10:17:03;;;;;;;2.53;1.67;;;0.90;91.30;;;;;;4093807;28;20588;-63
2023/01/18 10:19:20;;;;;;;3.10;1.40;;;0.90;91.20;;;;;;4104543;28;20527;-64
2023/01/18 10:21:40;;;;;;;1.87;1.47;;;1.00;91.10;;;;;;4106306;28;20445;-64
2023/01/18 10:24:20;;;;;;;1.63;1.20;;;1.10;90.20;;;;;;4100141;28;21008;-64
2023/01/18 10:26:30;;;;;;;2.07;1.80;;;1.20;88.90;;;;;;4079392;28;20454;-63
2023/01/18 10:28:52;;;;;;;3.17;1.43;;;1.70;86.10;;;;;;4104925;28;20436;-63
2023/01/18 10:31:14;;;;;;;1.80;1.23;;;1.90;85.00;;;;;;4102333;28;20428;-63
2023/01/18 10:33:20;;;;;;;3.90;1.70;;;2.00;81.70;;;;;;4103730;28;20473;-64
2023/01/18 10:35:34;;;;;;;2.57;1.50;;;1.90;82.00;;;;;;4088896;28;20452;-63
2023/01/18 10:37:44;;;;;;;1.57;1.40;;;1.60;83.50;;;;;;4083900;29;20471;-65
2023/01/18 10:39:52;;;;;;;1.90;1.40;;;1.50;84.60;;;;;;4091866;29;20450;-65
2023/01/18 10:41:58;;;;;;;2.63;1.50;;;1.90;86.30;;;;;;4098042;28;20427;-65
2023/01/18 10:43:58;;;;;;;4.20;2.10;;;2.10;81.80;;;;;;4080463;29;21030;-64
2023/01/18 10:45:59;;;;;;;2.77;1.60;;;2.00;82.80;;;;;;4111101;28;20441;-65
2023/01/18 10:48:37;;;;;;;2.43;1.33;;;2.10;79.90;;;;;;4097730;28;20206;-62
2023/01/18 10:50:44;;;;;;;3.20;1.60;;;2.50;81.30;;;;;;4087001;28;20230;-63
2023/01/18 10:52:45;;;;;;;2.33;1.50;;;2.50;79.10;;;;;;4107321;28;20939;-64
2023/01/18 10:54:58;;;;;;;2.67;1.57;;;2.20;80.00;;;;;;4101302;28;20434;-63
2023/01/18 10:57:04;;;;;;;1.83;1.40;;;2.20;82.00;;;;;;4105754;28;20742;-63
2023/01/18 10:59:23;;;;;;;2.53;1.60;;;2.40;80.10;;;;;;4103325;28;20443;-63
2023/01/18 11:01:34;;;;;;;2.23;1.60;;;1.80;79.70;;;;;;4102030;28;20537;-64
2023/01/18 11:03:44;;;;;;;2.17;1.53;;;1.10;83.90;;;;;;4090385;29;20509;-62
2023/01/18 11:05:45;;;;;;;2.23;1.50;;;1.00;86.50;;;;;;4148607;28;20461;-65
2023/01/18 11:07:46;;;;;;;1.77;1.40;;;0.70;88.50;;;;;;4109273;28;20462;-63
2023/01/18 11:09:54;;;;;;;2.10;1.53;;;1.00;89.20;;;;;;4103478;28;20218;-62
2023/01/18 11:12:32;;;;;;;1.67;1.50;;;1.20;87.50;;;;;;4115711;28;20204;-63
2023/01/18 11:14:33;;;;;;;2.30;1.60;;;1.00;87.80;;;;;;4087053;28;20973;-64
2023/01/18 11:16:41;;;;;;;2.77;1.80;;;0.70;88.40;;;;;;4108807;28;20428;-63
2023/01/18 11:19:15;;;;;;;2.63;1.57;;;0.60;90.00;;;;;;4100381;28;20430;-63
2023/01/18 11:21:16;;;;;;;2.57;1.40;;;0.50;90.30;;;;;;4103229;28;20547;-63
2023/01/18 11:23:37;;;;;;;2.17;1.63;;;0.30;89.40;;;;;;4087804;28;20472;-64